sensor_id;sensor_type;location;lat;lon;timestamp;temperature;humidity
66140;DHT22;52945;51.908;8.364;2023-05-29T00:00:02;17.40;56.00
66140;DHT22;52945;51.908;8.364;2023-05-29T00:03:07;17.20;56.20
66140;DHT22;52945;51.908;8.364;2023-05-29T00:06:09;17.30;55.80
66140;DHT22;52945;51.908;8.364;2023-05-29T00:09:10;17.20;55.90
66140;DHT22;52945;51.908;8.364;2023-05-29T00:12:11;17.20;55.50
66140;DHT22;52945;51.908;8.364;2023-05-29T00:15:12;17.20;55.80
66140;DHT22;52945;51.908;8.364;2023-05-29T00:18:12;17.20;55.50
66140;DHT22;52945;51.908;8.364;2023-05-29T00:21:13;17.20;55.60
66140;DHT22;52945;51.908;8.364;2023-05-29T00:24:15;17.20;55.40
66140;DHT22;52945;51.908;8.364;2023-05-29T00:27:16;17.10;55.30
66140;DHT22;52945;51.908;8.364;2023-05-29T00:30:16;17.00;55.60
66140;DHT22;52945;51.908;8.364;2023-05-29T00:33:17;16.70;56.40
66140;DHT22;52945;51.908;8.364;2023-05-29T00:36:19;16.60;56.90
66140;DHT22;52945;51.908;8.364;2023-05-29T00:39:19;16.60;56.70
66140;DHT22;52945;51.908;8.364;2023-05-29T00:42:20;16.70;55.70
66140;DHT22;52945;51.908;8.364;2023-05-29T00:45:21;16.60;55.90
66140;DHT22;52945;51.908;8.364;2023-05-29T00:48:22;16.30;56.20
66140;DHT22;52945;51.908;8.364;2023-05-29T00:51:22;16.30;56.00
66140;DHT22;52945;51.908;8.364;2023-05-29T00:54:26;16.40;56.40
66140;DHT22;52945;51.908;8.364;2023-05-29T00:57:28;16.20;56.50
66140;DHT22;52945;51.908;8.364;2023-05-29T01:00:29;16.30;56.20
66140;DHT22;52945;51.908;8.364;2023-05-29T01:03:31;16.20;56.40
66140;DHT22;52945;51.908;8.364;2023-05-29T01:06:33;16.10;56.50
66140;DHT22;52945;51.908;8.364;2023-05-29T01:09:33;16.20;56.40
66140;DHT22;52945;51.908;8.364;2023-05-29T01:15:52;16.00;57.00
66140;DHT22;52945;51.908;8.364;2023-05-29T01:26:11;15.70;57.40
66140;DHT22;52945;51.908;8.364;2023-05-29T01:29:19;15.70;57.20
66140;DHT22;52945;51.908;8.364;2023-05-29T01:32:20;15.70;56.70
66140;DHT22;52945;51.908;8.364;2023-05-29T01:35:21;15.60;56.70
66140;DHT22;52945;51.908;8.364;2023-05-29T01:38:22;15.50;56.70
66140;DHT22;52945;51.908;8.364;2023-05-29T01:41:23;15.60;56.60
66140;DHT22;52945;51.908;8.364;2023-05-29T01:44:24;15.40;56.70
66140;DHT22;52945;51.908;8.364;2023-05-29T01:47:26;15.30;56.40
66140;DHT22;52945;51.908;8.364;2023-05-29T01:50:27;15.20;57.10
66140;DHT22;52945;51.908;8.364;2023-05-29T01:53:28;15.10;56.60
66140;DHT22;52945;51.908;8.364;2023-05-29T01:56:30;15.10;57.20
66140;DHT22;52945;51.908;8.364;2023-05-29T01:59:32;15.20;56.60
66140;DHT22;52945;51.908;8.364;2023-05-29T02:02:37;15.20;56.30
66140;DHT22;52945;51.908;8.364;2023-05-29T02:05:37;15.20;56.30
66140;DHT22;52945;51.908;8.364;2023-05-29T02:08:38;15.00;56.20
66140;DHT22;52945;51.908;8.364;2023-05-29T02:11:39;14.90;56.30
66140;DHT22;52945;51.908;8.364;2023-05-29T02:14:44;15.00;56.10
66140;DHT22;52945;51.908;8.364;2023-05-29T02:17:45;15.10;55.70
66140;DHT22;52945;51.908;8.364;2023-05-29T02:20:46;15.00;56.50
66140;DHT22;52945;51.908;8.364;2023-05-29T02:23:46;15.10;56.00
66140;DHT22;52945;51.908;8.364;2023-05-29T02:26:48;15.10;55.90
66140;DHT22;52945;51.908;8.364;2023-05-29T02:29:50;14.90;56.50
66140;DHT22;52945;51.908;8.364;2023-05-29T02:32:51;15.00;55.90
66140;DHT22;52945;51.908;8.364;2023-05-29T02:35:51;14.80;56.60
66140;DHT22;52945;51.908;8.364;2023-05-29T02:38:52;14.60;57.20
66140;DHT22;52945;51.908;8.364;2023-05-29T02:41:52;14.60;57.90
66140;DHT22;52945;51.908;8.364;2023-05-29T02:44:54;14.70;56.90
66140;DHT22;52945;51.908;8.364;2023-05-29T02:47:55;14.70;57.40
66140;DHT22;52945;51.908;8.364;2023-05-29T02:50:55;14.70;57.00
66140;DHT22;52945;51.908;8.364;2023-05-29T02:53:56;14.70;56.80
66140;DHT22;52945;51.908;8.364;2023-05-29T02:56:56;14.80;56.90
66140;DHT22;52945;51.908;8.364;2023-05-29T02:59:57;14.90;56.60
66140;DHT22;52945;51.908;8.364;2023-05-29T03:02:58;15.00;56.40
66140;DHT22;52945;51.908;8.364;2023-05-29T03:05:58;14.80;57.00
66140;DHT22;52945;51.908;8.364;2023-05-29T03:09:00;14.50;57.80
66140;DHT22;52945;51.908;8.364;2023-05-29T03:12:01;14.50;57.80
66140;DHT22;52945;51.908;8.364;2023-05-29T03:15:02;14.40;58.40
66140;DHT22;52945;51.908;8.364;2023-05-29T03:18:03;14.40;58.20
66140;DHT22;52945;51.908;8.364;2023-05-29T03:21:03;14.60;57.60
66140;DHT22;52945;51.908;8.364;2023-05-29T03:24:04;14.60;57.90
66140;DHT22;52945;51.908;8.364;2023-05-29T03:27:05;14.60;57.70
66140;DHT22;52945;51.908;8.364;2023-05-29T03:30:06;14.60;57.70
66140;DHT22;52945;51.908;8.364;2023-05-29T03:33:07;14.70;57.80
66140;DHT22;52945;51.908;8.364;2023-05-29T03:36:08;14.60;57.50
66140;DHT22;52945;51.908;8.364;2023-05-29T03:39:08;14.40;58.30
66140;DHT22;52945;51.908;8.364;2023-05-29T03:42:10;14.40;58.50
66140;DHT22;52945;51.908;8.364;2023-05-29T03:45:10;14.10;59.90
66140;DHT22;52945;51.908;8.364;2023-05-29T03:48:11;14.20;59.50
66140;DHT22;52945;51.908;8.364;2023-05-29T03:51:12;14.20;59.90
66140;DHT22;52945;51.908;8.364;2023-05-29T03:54:12;14.20;59.30
66140;DHT22;52945;51.908;8.364;2023-05-29T03:57:13;14.20;59.90
66140;DHT22;52945;51.908;8.364;2023-05-29T04:00:13;14.20;60.00
66140;DHT22;52945;51.908;8.364;2023-05-29T04:03:15;14.20;59.90
66140;DHT22;52945;51.908;8.364;2023-05-29T04:06:16;14.40;59.20
66140;DHT22;52945;51.908;8.364;2023-05-29T04:09:16;14.20;60.40
66140;DHT22;52945;51.908;8.364;2023-05-29T04:12:18;14.20;60.00
66140;DHT22;52945;51.908;8.364;2023-05-29T04:15:18;14.20;59.80
66140;DHT22;52945;51.908;8.364;2023-05-29T04:18:20;14.30;59.90
66140;DHT22;52945;51.908;8.364;2023-05-29T04:21:21;14.30;60.00
66140;DHT22;52945;51.908;8.364;2023-05-29T04:24:21;14.30;59.90
66140;DHT22;52945;51.908;8.364;2023-05-29T04:27:22;14.20;60.40
66140;DHT22;52945;51.908;8.364;2023-05-29T04:30:22;14.20;60.30
66140;DHT22;52945;51.908;8.364;2023-05-29T04:33:23;14.30;59.90
66140;DHT22;52945;51.908;8.364;2023-05-29T04:36:24;14.30;59.70
66140;DHT22;52945;51.908;8.364;2023-05-29T04:39:26;14.30;60.00
66140;DHT22;52945;51.908;8.364;2023-05-29T04:42:26;14.40;59.70
66140;DHT22;52945;51.908;8.364;2023-05-29T04:45:27;14.40;59.40
66140;DHT22;52945;51.908;8.364;2023-05-29T04:48:28;14.30;60.10
66140;DHT22;52945;51.908;8.364;2023-05-29T04:51:28;14.20;60.10
66140;DHT22;52945;51.908;8.364;2023-05-29T04:54:30;14.30;59.80
66140;DHT22;52945;51.908;8.364;2023-05-29T04:57:30;14.30;59.90
66140;DHT22;52945;51.908;8.364;2023-05-29T05:00:31;14.40;59.60
66140;DHT22;52945;51.908;8.364;2023-05-29T05:03:32;14.40;59.80
66140;DHT22;52945;51.908;8.364;2023-05-29T05:06:33;14.40;59.80
66140;DHT22;52945;51.908;8.364;2023-05-29T05:09:34;14.40;59.30
66140;DHT22;52945;51.908;8.364;2023-05-29T05:12:35;14.50;59.60
66140;DHT22;52945;51.908;8.364;2023-05-29T05:15:35;14.50;59.30
66140;DHT22;52945;51.908;8.364;2023-05-29T05:18:36;14.60;59.30
66140;DHT22;52945;51.908;8.364;2023-05-29T05:21:37;14.60;58.90
66140;DHT22;52945;51.908;8.364;2023-05-29T05:24:37;14.40;59.30
66140;DHT22;52945;51.908;8.364;2023-05-29T05:27:38;14.40;59.50
66140;DHT22;52945;51.908;8.364;2023-05-29T05:30:38;14.30;59.80
66140;DHT22;52945;51.908;8.364;2023-05-29T05:33:39;14.40;59.90
66140;DHT22;52945;51.908;8.364;2023-05-29T05:36:40;14.60;59.20
66140;DHT22;52945;51.908;8.364;2023-05-29T05:39:40;14.50;59.50
66140;DHT22;52945;51.908;8.364;2023-05-29T05:42:41;14.50;59.30
66140;DHT22;52945;51.908;8.364;2023-05-29T05:45:41;14.60;59.20
66140;DHT22;52945;51.908;8.364;2023-05-29T05:48:43;14.70;58.70
66140;DHT22;52945;51.908;8.364;2023-05-29T05:51:43;14.70;58.90
66140;DHT22;52945;51.908;8.364;2023-05-29T05:54:44;14.60;59.10
66140;DHT22;52945;51.908;8.364;2023-05-29T05:57:44;14.70;58.90
66140;DHT22;52945;51.908;8.364;2023-05-29T06:00:45;14.60;58.90
66140;DHT22;52945;51.908;8.364;2023-05-29T06:03:46;14.70;58.80
66140;DHT22;52945;51.908;8.364;2023-05-29T06:06:46;14.70;58.90
66140;DHT22;52945;51.908;8.364;2023-05-29T06:09:47;14.70;58.60
66140;DHT22;52945;51.908;8.364;2023-05-29T06:12:47;14.70;58.90
66140;DHT22;52945;51.908;8.364;2023-05-29T06:15:48;14.70;58.30
66140;DHT22;52945;51.908;8.364;2023-05-29T06:18:49;14.80;58.30
66140;DHT22;52945;51.908;8.364;2023-05-29T06:21:49;14.80;58.20
66140;DHT22;52945;51.908;8.364;2023-05-29T06:24:50;15.00;57.60
66140;DHT22;52945;51.908;8.364;2023-05-29T06:27:50;15.10;57.70
66140;DHT22;52945;51.908;8.364;2023-05-29T06:30:51;15.10;57.50
66140;DHT22;52945;51.908;8.364;2023-05-29T06:33:51;15.20;57.40
66140;DHT22;52945;51.908;8.364;2023-05-29T06:36:52;15.30;57.00
66140;DHT22;52945;51.908;8.364;2023-05-29T06:39:52;15.30;56.90
66140;DHT22;52945;51.908;8.364;2023-05-29T06:42:53;15.40;56.80
66140;DHT22;52945;51.908;8.364;2023-05-29T06:45:54;15.20;56.80
66140;DHT22;52945;51.908;8.364;2023-05-29T06:48:55;15.40;56.80
66140;DHT22;52945;51.908;8.364;2023-05-29T06:51:55;15.50;56.70
66140;DHT22;52945;51.908;8.364;2023-05-29T06:54:56;15.40;56.40
66140;DHT22;52945;51.908;8.364;2023-05-29T06:57:57;15.40;56.60
66140;DHT22;52945;51.908;8.364;2023-05-29T07:00:58;15.40;56.50
66140;DHT22;52945;51.908;8.364;2023-05-29T07:03:58;15.40;55.90
66140;DHT22;52945;51.908;8.364;2023-05-29T07:06:59;15.50;56.10
66140;DHT22;52945;51.908;8.364;2023-05-29T07:10:00;15.60;56.40
66140;DHT22;52945;51.908;8.364;2023-05-29T07:13:00;15.60;55.40
66140;DHT22;52945;51.908;8.364;2023-05-29T07:16:01;15.70;55.30
66140;DHT22;52945;51.908;8.364;2023-05-29T07:19:01;15.70;55.00
66140;DHT22;52945;51.908;8.364;2023-05-29T07:22:02;15.80;55.00
66140;DHT22;52945;51.908;8.364;2023-05-29T07:25:03;16.00;54.90
66140;DHT22;52945;51.908;8.364;2023-05-29T07:28:04;16.00;54.60
66140;DHT22;52945;51.908;8.364;2023-05-29T07:31:04;16.10;54.00
66140;DHT22;52945;51.908;8.364;2023-05-29T07:34:05;16.10;53.70
66140;DHT22;52945;51.908;8.364;2023-05-29T07:37:06;16.10;53.20
66140;DHT22;52945;51.908;8.364;2023-05-29T07:40:08;15.80;53.20
66140;DHT22;52945;51.908;8.364;2023-05-29T07:43:09;15.90;54.20
66140;DHT22;52945;51.908;8.364;2023-05-29T07:46:10;16.10;54.30
66140;DHT22;52945;51.908;8.364;2023-05-29T07:49:10;16.10;54.10
66140;DHT22;52945;51.908;8.364;2023-05-29T07:52:11;16.20;54.50
66140;DHT22;52945;51.908;8.364;2023-05-29T07:55:11;16.30;54.20
66140;DHT22;52945;51.908;8.364;2023-05-29T07:58:12;16.40;52.80
66140;DHT22;52945;51.908;8.364;2023-05-29T08:01:13;16.20;53.00
66140;DHT22;52945;51.908;8.364;2023-05-29T08:04:14;16.30;52.00
66140;DHT22;52945;51.908;8.364;2023-05-29T08:07:14;16.50;52.50
66140;DHT22;52945;51.908;8.364;2023-05-29T08:10:15;16.70;52.40
66140;DHT22;52945;51.908;8.364;2023-05-29T08:13:16;16.80;51.50
66140;DHT22;52945;51.908;8.364;2023-05-29T08:16:16;16.80;50.80
66140;DHT22;52945;51.908;8.364;2023-05-29T08:19:17;16.90;50.90
66140;DHT22;52945;51.908;8.364;2023-05-29T08:22:18;17.00;51.00
66140;DHT22;52945;51.908;8.364;2023-05-29T08:25:18;17.00;49.80
66140;DHT22;52945;51.908;8.364;2023-05-29T08:28:19;17.10;49.60
66140;DHT22;52945;51.908;8.364;2023-05-29T08:31:19;17.20;49.80
66140;DHT22;52945;51.908;8.364;2023-05-29T08:34:20;17.20;49.10
66140;DHT22;52945;51.908;8.364;2023-05-29T08:37:21;17.20;49.40
66140;DHT22;52945;51.908;8.364;2023-05-29T08:40:21;17.40;50.10
66140;DHT22;52945;51.908;8.364;2023-05-29T08:43:22;17.30;49.00
66140;DHT22;52945;51.908;8.364;2023-05-29T08:46:23;17.20;49.00
66140;DHT22;52945;51.908;8.364;2023-05-29T08:49:26;17.40;49.50
66140;DHT22;52945;51.908;8.364;2023-05-29T08:52:33;17.70;49.10
66140;DHT22;52945;51.908;8.364;2023-05-29T08:55:36;17.70;48.40
66140;DHT22;52945;51.908;8.364;2023-05-29T08:58:37;17.80;48.60
66140;DHT22;52945;51.908;8.364;2023-05-29T09:01:38;17.90;48.30
66140;DHT22;52945;51.908;8.364;2023-05-29T09:04:40;17.70;48.90
66140;DHT22;52945;51.908;8.364;2023-05-29T09:07:41;17.80;49.00
66140;DHT22;52945;51.908;8.364;2023-05-29T09:10:45;18.20;48.90
66140;DHT22;52945;51.908;8.364;2023-05-29T09:13:46;18.30;48.40
66140;DHT22;52945;51.908;8.364;2023-05-29T09:16:47;18.60;47.80
66140;DHT22;52945;51.908;8.364;2023-05-29T09:19:48;18.70;46.50
66140;DHT22;52945;51.908;8.364;2023-05-29T09:23:01;18.60;47.80
66140;DHT22;52945;51.908;8.364;2023-05-29T09:26:02;18.80;47.00
66140;DHT22;52945;51.908;8.364;2023-05-29T09:29:04;19.00;47.00
66140;DHT22;52945;51.908;8.364;2023-05-29T09:32:09;19.20;46.40
66140;DHT22;52945;51.908;8.364;2023-05-29T09:35:10;19.50;45.00
66140;DHT22;52945;51.908;8.364;2023-05-29T09:38:12;19.60;44.80
66140;DHT22;52945;51.908;8.364;2023-05-29T09:41:12;19.60;44.50
66140;DHT22;52945;51.908;8.364;2023-05-29T09:44:13;19.60;44.30
66140;DHT22;52945;51.908;8.364;2023-05-29T09:47:16;19.70;43.90
66140;DHT22;52945;51.908;8.364;2023-05-29T09:50:20;19.20;45.20
66140;DHT22;52945;51.908;8.364;2023-05-29T09:53:26;19.20;45.80
66140;DHT22;52945;51.908;8.364;2023-05-29T09:56:29;19.40;45.50
66140;DHT22;52945;51.908;8.364;2023-05-29T09:59:31;19.30;44.80
66140;DHT22;52945;51.908;8.364;2023-05-29T10:02:32;19.60;44.80
66140;DHT22;52945;51.908;8.364;2023-05-29T10:05:33;19.80;45.20
66140;DHT22;52945;51.908;8.364;2023-05-29T10:08:35;20.20;45.10
66140;DHT22;52945;51.908;8.364;2023-05-29T10:11:41;20.50;43.90
66140;DHT22;52945;51.908;8.364;2023-05-29T10:14:43;20.20;43.40
66140;DHT22;52945;51.908;8.364;2023-05-29T10:18:32;20.50;43.80
66140;DHT22;52945;51.908;8.364;2023-05-29T10:21:14;20.70;43.60
66140;DHT22;52945;51.908;8.364;2023-05-29T10:24:15;20.80;42.40
66140;DHT22;52945;51.908;8.364;2023-05-29T10:27:18;20.90;42.30
66140;DHT22;52945;51.908;8.364;2023-05-29T10:37:04;21.10;42.40
66140;DHT22;52945;51.908;8.364;2023-05-29T10:40:08;21.20;41.60
66140;DHT22;52945;51.908;8.364;2023-05-29T10:43:30;21.10;41.40
66140;DHT22;52945;51.908;8.364;2023-05-29T10:49:51;21.40;40.70
66140;DHT22;52945;51.908;8.364;2023-05-29T10:52:52;21.50;41.60
66140;DHT22;52945;51.908;8.364;2023-05-29T10:55:53;21.70;41.10
66140;DHT22;52945;51.908;8.364;2023-05-29T10:58:57;22.00;41.00
66140;DHT22;52945;51.908;8.364;2023-05-29T11:01:58;22.20;39.20
66140;DHT22;52945;51.908;8.364;2023-05-29T11:05:20;22.50;39.60
66140;DHT22;52945;51.908;8.364;2023-05-29T11:08:29;22.80;39.80
66140;DHT22;52945;51.908;8.364;2023-05-29T11:11:33;23.00;38.20
66140;DHT22;52945;51.908;8.364;2023-05-29T11:14:56;23.20;39.00
66140;DHT22;52945;51.908;8.364;2023-05-29T11:18:06;23.40;37.00
66140;DHT22;52945;51.908;8.364;2023-05-29T11:21:22;23.20;37.80
66140;DHT22;52945;51.908;8.364;2023-05-29T11:24:26;23.50;37.00
66140;DHT22;52945;51.908;8.364;2023-05-29T11:27:26;23.20;36.70
66140;DHT22;52945;51.908;8.364;2023-05-29T11:30:28;23.10;38.20
66140;DHT22;52945;51.908;8.364;2023-05-29T11:33:29;23.20;37.80
66140;DHT22;52945;51.908;8.364;2023-05-29T11:36:32;23.40;37.40
66140;DHT22;52945;51.908;8.364;2023-05-29T11:39:37;23.60;37.70
66140;DHT22;52945;51.908;8.364;2023-05-29T11:42:45;23.30;36.60
66140;DHT22;52945;51.908;8.364;2023-05-29T11:45:46;23.20;36.70
66140;DHT22;52945;51.908;8.364;2023-05-29T11:48:48;23.30;36.70
66140;DHT22;52945;51.908;8.364;2023-05-29T11:51:48;23.00;37.80
66140;DHT22;52945;51.908;8.364;2023-05-29T11:54:49;23.10;37.80
66140;DHT22;52945;51.908;8.364;2023-05-29T11:57:55;23.20;37.90
66140;DHT22;52945;51.908;8.364;2023-05-29T12:00:56;23.40;37.30
66140;DHT22;52945;51.908;8.364;2023-05-29T12:03:57;23.30;37.90
66140;DHT22;52945;51.908;8.364;2023-05-29T12:06:57;23.70;37.80
66140;DHT22;52945;51.908;8.364;2023-05-29T12:10:09;23.80;36.90
66140;DHT22;52945;51.908;8.364;2023-05-29T12:13:10;23.80;36.90
66140;DHT22;52945;51.908;8.364;2023-05-29T12:16:10;23.70;37.30
66140;DHT22;52945;51.908;8.364;2023-05-29T12:19:11;23.70;36.80
66140;DHT22;52945;51.908;8.364;2023-05-29T12:22:12;23.70;37.20
66140;DHT22;52945;51.908;8.364;2023-05-29T12:25:18;23.80;37.50
66140;DHT22;52945;51.908;8.364;2023-05-29T12:28:20;24.00;37.60
66140;DHT22;52945;51.908;8.364;2023-05-29T12:31:28;24.20;37.30
66140;DHT22;52945;51.908;8.364;2023-05-29T12:34:34;24.40;36.80
66140;DHT22;52945;51.908;8.364;2023-05-29T12:37:42;24.50;37.10
66140;DHT22;52945;51.908;8.364;2023-05-29T12:40:48;24.60;35.90
66140;DHT22;52945;51.908;8.364;2023-05-29T12:43:49;24.50;36.20
66140;DHT22;52945;51.908;8.364;2023-05-29T12:46:56;24.40;36.50
66140;DHT22;52945;51.908;8.364;2023-05-29T12:49:56;24.60;36.90
66140;DHT22;52945;51.908;8.364;2023-05-29T12:53:05;24.70;36.80
66140;DHT22;52945;51.908;8.364;2023-05-29T12:56:06;24.80;36.40
66140;DHT22;52945;51.908;8.364;2023-05-29T12:59:07;24.90;36.50
66140;DHT22;52945;51.908;8.364;2023-05-29T13:02:08;24.70;36.20
66140;DHT22;52945;51.908;8.364;2023-05-29T13:05:09;24.80;36.00
66140;DHT22;52945;51.908;8.364;2023-05-29T13:09:26;24.80;36.70
66140;DHT22;52945;51.908;8.364;2023-05-29T13:12:27;25.20;36.00
66140;DHT22;52945;51.908;8.364;2023-05-29T13:15:28;25.40;36.20
66140;DHT22;52945;51.908;8.364;2023-05-29T13:18:29;25.30;35.30
66140;DHT22;52945;51.908;8.364;2023-05-29T13:21:30;25.20;36.00
66140;DHT22;52945;51.908;8.364;2023-05-29T13:24:30;25.00;35.00
66140;DHT22;52945;51.908;8.364;2023-05-29T13:27:31;24.80;36.30
66140;DHT22;52945;51.908;8.364;2023-05-29T13:30:31;25.00;36.00
66140;DHT22;52945;51.908;8.364;2023-05-29T13:33:32;24.80;35.20
66140;DHT22;52945;51.908;8.364;2023-05-29T13:36:32;24.70;36.10
66140;DHT22;52945;51.908;8.364;2023-05-29T13:39:33;24.90;35.70
66140;DHT22;52945;51.908;8.364;2023-05-29T13:42:34;25.00;35.50
66140;DHT22;52945;51.908;8.364;2023-05-29T13:45:34;25.20;35.30
66140;DHT22;52945;51.908;8.364;2023-05-29T13:48:35;25.40;35.00
66140;DHT22;52945;51.908;8.364;2023-05-29T13:51:35;25.40;34.40
66140;DHT22;52945;51.908;8.364;2023-05-29T13:54:37;25.50;34.20
66140;DHT22;52945;51.908;8.364;2023-05-29T13:57:37;25.40;34.40
66140;DHT22;52945;51.908;8.364;2023-05-29T14:00:38;25.50;33.90
66140;DHT22;52945;51.908;8.364;2023-05-29T14:03:38;25.60;34.00
66140;DHT22;52945;51.908;8.364;2023-05-29T14:06:39;25.50;32.80
66140;DHT22;52945;51.908;8.364;2023-05-29T14:09:40;25.60;33.70
66140;DHT22;52945;51.908;8.364;2023-05-29T14:12:41;25.60;32.50
66140;DHT22;52945;51.908;8.364;2023-05-29T14:15:41;25.60;32.30
66140;DHT22;52945;51.908;8.364;2023-05-29T14:18:42;25.50;32.80
66140;DHT22;52945;51.908;8.364;2023-05-29T14:21:43;25.30;33.30
66140;DHT22;52945;51.908;8.364;2023-05-29T14:24:43;25.30;32.90
66140;DHT22;52945;51.908;8.364;2023-05-29T14:27:44;25.30;33.40
66140;DHT22;52945;51.908;8.364;2023-05-29T14:30:45;25.30;33.50
66140;DHT22;52945;51.908;8.364;2023-05-29T14:33:45;25.20;32.80
66140;DHT22;52945;51.908;8.364;2023-05-29T14:36:46;25.20;32.30
66140;DHT22;52945;51.908;8.364;2023-05-29T14:39:47;25.20;32.80
66140;DHT22;52945;51.908;8.364;2023-05-29T14:42:47;25.30;32.00
66140;DHT22;52945;51.908;8.364;2023-05-29T14:45:48;25.20;31.20
66140;DHT22;52945;51.908;8.364;2023-05-29T14:48:48;25.10;31.30
66140;DHT22;52945;51.908;8.364;2023-05-29T14:51:49;25.00;31.30
66140;DHT22;52945;51.908;8.364;2023-05-29T14:54:50;25.10;30.80
66140;DHT22;52945;51.908;8.364;2023-05-29T14:57:50;25.20;30.80
66140;DHT22;52945;51.908;8.364;2023-05-29T15:00:51;25.20;30.20
66140;DHT22;52945;51.908;8.364;2023-05-29T15:03:51;24.90;29.40
66140;DHT22;52945;51.908;8.364;2023-05-29T15:06:52;25.00;30.20
66140;DHT22;52945;51.908;8.364;2023-05-29T15:09:54;25.00;29.80
66140;DHT22;52945;51.908;8.364;2023-05-29T15:12:55;25.20;29.70
66140;DHT22;52945;51.908;8.364;2023-05-29T15:15:57;25.00;29.40
66140;DHT22;52945;51.908;8.364;2023-05-29T15:19:03;25.00;29.70
66140;DHT22;52945;51.908;8.364;2023-05-29T15:22:04;25.10;29.00
66140;DHT22;52945;51.908;8.364;2023-05-29T15:25:04;24.90;28.80
66140;DHT22;52945;51.908;8.364;2023-05-29T15:28:05;24.90;29.00
66140;DHT22;52945;51.908;8.364;2023-05-29T15:31:06;24.80;29.10
66140;DHT22;52945;51.908;8.364;2023-05-29T15:34:06;24.80;29.00
66140;DHT22;52945;51.908;8.364;2023-05-29T15:37:07;25.00;29.00
66140;DHT22;52945;51.908;8.364;2023-05-29T15:40:08;25.10;29.10
66140;DHT22;52945;51.908;8.364;2023-05-29T15:43:12;25.10;27.70
66140;DHT22;52945;51.908;8.364;2023-05-29T15:46:12;25.20;28.00
66140;DHT22;52945;51.908;8.364;2023-05-29T15:49:13;25.30;27.60
66140;DHT22;52945;51.908;8.364;2023-05-29T15:52:14;25.20;26.80
66140;DHT22;52945;51.908;8.364;2023-05-29T15:55:17;25.30;27.40
66140;DHT22;52945;51.908;8.364;2023-05-29T15:58:18;25.60;28.10
66140;DHT22;52945;51.908;8.364;2023-05-29T16:01:19;25.70;28.50
66140;DHT22;52945;51.908;8.364;2023-05-29T16:04:19;25.90;27.70
66140;DHT22;52945;51.908;8.364;2023-05-29T16:07:20;26.10;27.50
66140;DHT22;52945;51.908;8.364;2023-05-29T16:10:21;26.20;27.30
66140;DHT22;52945;51.908;8.364;2023-05-29T16:13:21;26.10;26.60
66140;DHT22;52945;51.908;8.364;2023-05-29T16:16:22;26.10;26.60
66140;DHT22;52945;51.908;8.364;2023-05-29T16:19:22;26.20;27.20
66140;DHT22;52945;51.908;8.364;2023-05-29T16:22:24;26.20;26.60
66140;DHT22;52945;51.908;8.364;2023-05-29T16:25:25;26.20;26.80
66140;DHT22;52945;51.908;8.364;2023-05-29T16:28:25;26.20;27.10
66140;DHT22;52945;51.908;8.364;2023-05-29T16:31:27;26.30;26.90
66140;DHT22;52945;51.908;8.364;2023-05-29T16:34:28;26.20;27.20
66140;DHT22;52945;51.908;8.364;2023-05-29T16:37:28;26.20;27.30
66140;DHT22;52945;51.908;8.364;2023-05-29T16:40:29;26.10;27.40
66140;DHT22;52945;51.908;8.364;2023-05-29T16:43:29;25.90;28.20
66140;DHT22;52945;51.908;8.364;2023-05-29T16:46:32;25.90;28.40
66140;DHT22;52945;51.908;8.364;2023-05-29T16:49:32;25.60;28.40
66140;DHT22;52945;51.908;8.364;2023-05-29T16:52:33;25.40;28.40
66140;DHT22;52945;51.908;8.364;2023-05-29T16:55:34;25.10;28.60
66140;DHT22;52945;51.908;8.364;2023-05-29T16:58:35;24.90;28.90
66140;DHT22;52945;51.908;8.364;2023-05-29T17:01:35;24.70;29.00
66140;DHT22;52945;51.908;8.364;2023-05-29T17:04:36;24.70;28.80
66140;DHT22;52945;51.908;8.364;2023-05-29T17:07:37;24.60;29.10
66140;DHT22;52945;51.908;8.364;2023-05-29T17:10:37;24.50;29.10
66140;DHT22;52945;51.908;8.364;2023-05-29T17:13:38;24.20;29.00
66140;DHT22;52945;51.908;8.364;2023-05-29T17:16:39;24.20;29.30
66140;DHT22;52945;51.908;8.364;2023-05-29T17:19:39;24.00;29.60
66140;DHT22;52945;51.908;8.364;2023-05-29T17:22:40;24.00;29.50
66140;DHT22;52945;51.908;8.364;2023-05-29T17:25:41;23.80;29.70
66140;DHT22;52945;51.908;8.364;2023-05-29T17:28:41;23.70;29.80
66140;DHT22;52945;51.908;8.364;2023-05-29T17:31:42;23.60;30.00
66140;DHT22;52945;51.908;8.364;2023-05-29T17:34:42;23.60;30.40
66140;DHT22;52945;51.908;8.364;2023-05-29T17:37:44;23.50;30.50
66140;DHT22;52945;51.908;8.364;2023-05-29T17:40:44;23.40;30.80
66140;DHT22;52945;51.908;8.364;2023-05-29T17:43:45;23.20;30.90
66140;DHT22;52945;51.908;8.364;2023-05-29T17:46:45;23.20;31.20
66140;DHT22;52945;51.908;8.364;2023-05-29T17:49:46;23.10;31.30
66140;DHT22;52945;51.908;8.364;2023-05-29T17:52:46;22.90;31.90
66140;DHT22;52945;51.908;8.364;2023-05-29T17:55:47;22.90;32.10
66140;DHT22;52945;51.908;8.364;2023-05-29T17:58:48;22.90;32.40
66140;DHT22;52945;51.908;8.364;2023-05-29T18:01:49;22.90;32.80
66140;DHT22;52945;51.908;8.364;2023-05-29T18:04:50;22.80;32.50
66140;DHT22;52945;51.908;8.364;2023-05-29T18:07:51;22.60;33.00
66140;DHT22;52945;51.908;8.364;2023-05-29T18:10:52;22.50;33.10
66140;DHT22;52945;51.908;8.364;2023-05-29T18:13:53;22.20;33.80
66140;DHT22;52945;51.908;8.364;2023-05-29T18:16:53;22.20;33.80
66140;DHT22;52945;51.908;8.364;2023-05-29T18:19:54;22.00;34.00
66140;DHT22;52945;51.908;8.364;2023-05-29T18:22:55;21.90;33.80
66140;DHT22;52945;51.908;8.364;2023-05-29T18:25:56;21.80;34.00
66140;DHT22;52945;51.908;8.364;2023-05-29T18:28:57;21.70;34.00
66140;DHT22;52945;51.908;8.364;2023-05-29T18:32:00;21.70;34.50
66140;DHT22;52945;51.908;8.364;2023-05-29T18:35:01;21.80;34.60
66140;DHT22;52945;51.908;8.364;2023-05-29T18:38:02;21.70;33.90
66140;DHT22;52945;51.908;8.364;2023-05-29T18:41:03;21.50;34.10
66140;DHT22;52945;51.908;8.364;2023-05-29T18:44:03;21.50;34.20
66140;DHT22;52945;51.908;8.364;2023-05-29T18:47:04;21.40;34.20
66140;DHT22;52945;51.908;8.364;2023-05-29T18:50:06;21.20;34.00
66140;DHT22;52945;51.908;8.364;2023-05-29T18:53:07;20.90;34.80
66140;DHT22;52945;51.908;8.364;2023-05-29T18:56:08;20.90;34.70
66140;DHT22;52945;51.908;8.364;2023-05-29T18:59:09;20.80;34.70
66140;DHT22;52945;51.908;8.364;2023-05-29T19:02:10;20.90;34.70
66140;DHT22;52945;51.908;8.364;2023-05-29T19:05:10;20.70;34.90
66140;DHT22;52945;51.908;8.364;2023-05-29T19:08:11;20.70;34.90
66140;DHT22;52945;51.908;8.364;2023-05-29T19:11:11;20.70;35.20
66140;DHT22;52945;51.908;8.364;2023-05-29T19:14:15;20.60;35.30
66140;DHT22;52945;51.908;8.364;2023-05-29T19:17:17;20.60;35.30
66140;DHT22;52945;51.908;8.364;2023-05-29T19:20:19;20.60;35.70
66140;DHT22;52945;51.908;8.364;2023-05-29T19:23:19;20.40;35.90
66140;DHT22;52945;51.908;8.364;2023-05-29T19:26:20;20.30;36.10